Time;durP1;ratioP1;P1;durP2;ratioP2;P2;SDS_P1;SDS_P2;PMS_P1;PMS_P2;Temp;Humidity;BMP_temperature;BMP_pressure;BME280_temperature;BME280_humidity;BME280_pressure;Samples;Min_cycle;Max_cycle;Signal;HPM_P1;HPM_P2
2023/01/07 00:02:10;;;;;;;;;;;19.40;99.90;;;;;;5052696;28;19916;-71
2023/01/07 00:04:36;;;;;;;;;;;19.50;99.90;;;;;;5052720;28;19919;-69
2023/01/07 00:07:03;;;;;;;;;;;19.50;99.90;;;;;;5052429;28;19916;-69
2023/01/07 00:09:29;;;;;;;;;;;19.50;99.90;;;;;;5052536;28;19916;-69
2023/01/07 00:11:56;;;;;;;;;;;19.50;99.90;;;;;;5062907;28;19921;-69
2023/01/07 00:14:23;;;;;;;;;;;19.50;99.90;;;;;;5072695;28;19935;-71
2023/01/07 00:16:49;;;;;;;;;;;19.50;99.90;;;;;;5072527;28;19968;-68
2023/01/07 00:19:16;;;;;;;;;;;19.50;99.90;;;;;;5063678;28;19928;-67
2023/01/07 00:21:42;;;;;;;;;;;19.50;99.90;;;;;;5052382;28;20010;-69
2023/01/07 00:24:10;;;;;;;;;;;19.50;99.90;;;;;;5052451;28;19955;-69
2023/01/07 00:26:37;;;;;;;;;;;19.50;99.90;;;;;;5058659;28;20369;-68
2023/01/07 00:29:04;;;;;;;;;;;19.70;99.90;;;;;;5072089;28;19958;-70
2023/01/07 00:31:32;;;;;;;;;;;19.80;99.90;;;;;;5072155;28;19924;-70
2023/01/07 00:36:27;;;;;;;;;;;20.00;99.90;;;;;;5071822;28;20399;-68
2023/01/07 00:38:57;;;;;;;;;;;20.20;99.90;;;;;;5072445;28;20015;-69
2023/01/07 00:41:23;;;;;;;;;;;20.40;99.90;;;;;;5072480;28;19919;-68
2023/01/07 00:43:50;;;;;;;;;;;20.50;99.90;;;;;;5072137;28;19954;-69
2023/01/07 00:46:20;;;;;;;;;;;20.80;99.90;;;;;;5063619;28;20278;-69
2023/01/07 00:48:47;;;;;;;;;;;21.00;99.90;;;;;;5052373;28;19956;-70
2023/01/07 00:51:14;;;;;;;;;;;21.10;99.90;;;;;;5052179;28;19917;-69
2023/01/07 00:53:41;;;;;;;;;;;21.20;99.90;;;;;;5051928;28;19913;-71
2023/01/07 00:56:13;;;;;;;;;;;21.10;99.90;;;;;;5052254;28;19962;-69
2023/01/07 00:58:40;;;;;;;;;;;21.10;99.90;;;;;;5053253;28;20350;-69
2023/01/07 01:01:07;;;;;;;;;;;21.20;99.90;;;;;;5060458;28;19912;-72
2023/01/07 01:03:34;;;;;;;;;;;21.00;99.90;;;;;;5075109;28;20272;-69
2023/01/07 01:06:02;;;;;;;;;;;21.00;99.90;;;;;;5075206;28;19912;-72
2023/01/07 01:08:28;;;;;;;;;;;21.00;99.90;;;;;;5075569;28;19908;-69
2023/01/07 01:10:55;;;;;;;;;;;21.00;99.90;;;;;;5075747;28;19928;-70
2023/01/07 01:13:22;;;;;;;;;;;21.20;99.90;;;;;;5075817;28;19961;-69
2023/01/07 01:15:48;;;;;;;;;;;21.30;99.90;;;;;;5055806;28;19913;-69
2023/01/07 01:18:15;;;;;;;;;;;21.40;99.90;;;;;;5055577;28;20324;-69
2023/01/07 01:20:42;;;;;;;;;;;21.30;99.90;;;;;;5056549;28;19917;-69
2023/01/07 01:23:08;;;;;;;;;;;21.50;99.90;;;;;;5075538;28;19917;-69
2023/01/07 01:25:35;;;;;;;;;;;21.70;99.90;;;;;;5075320;28;19932;-69
2023/01/07 01:28:02;;;;;;;;;;;21.80;99.90;;;;;;5075165;28;19912;-71
2023/01/07 01:30:29;;;;;;;;;;;21.90;99.90;;;;;;5075272;28;19913;-71
2023/01/07 01:32:55;;;;;;;;;;;22.10;99.90;;;;;;5073957;28;19909;-69
2023/01/07 01:35:22;;;;;;;;;;;22.40;99.90;;;;;;5074692;28;19920;-70
2023/01/07 01:37:48;;;;;;;;;;;22.60;99.90;;;;;;5054440;28;20347;-68
2023/01/07 01:40:15;;;;;;;;;;;22.70;99.90;;;;;;5055183;28;19912;-70
2023/01/07 01:42:42;;;;;;;;;;;22.90;99.90;;;;;;5058926;28;19909;-69
2023/01/07 01:45:09;;;;;;;;;;;22.90;99.90;;;;;;5054839;28;19999;-70
2023/01/07 01:47:42;;;;;;;;;;;23.00;99.90;;;;;;5054970;28;19985;-69
2023/01/07 01:50:17;;;;;;;;;;;23.10;99.90;;;;;;5054807;28;19938;-68
2023/01/07 01:53:04;;;;;;;;;;;23.20;99.90;;;;;;5054787;28;19924;-75
2023/01/07 01:55:42;;;;;;;;;;;23.40;99.90;;;;;;5054447;28;19948;-68
2023/01/07 01:58:17;;;;;;;;;;;23.60;99.90;;;;;;5055916;28;20003;-67
2023/01/07 02:00:44;;;;;;;;;;;23.80;99.90;;;;;;5054710;28;19960;-77
2023/01/07 02:03:12;;;;;;;;;;;24.00;99.90;;;;;;5054870;28;19916;-68
2023/01/07 02:05:40;;;;;;;;;;;24.10;99.90;;;;;;5054436;28;20340;-70
2023/01/07 02:08:07;;;;;;;;;;;24.20;99.90;;;;;;5054680;28;19966;-69
2023/01/07 02:10:34;;;;;;;;;;;24.40;99.90;;;;;;5062014;28;20400;-67
2023/01/07 02:13:01;;;;;;;;;;;24.60;99.90;;;;;;5066620;28;20411;-69
2023/01/07 02:15:31;;;;;;;;;;;24.70;99.90;;;;;;5054243;28;19909;-68
2023/01/07 02:18:15;;;;;;;;;;;24.80;99.90;;;;;;5055831;28;19908;-69
2023/01/07 02:20:46;;;;;;;;;;;24.90;98.20;;;;;;5056417;28;19908;-69
2023/01/07 02:23:25;;;;;;;;;;;24.80;99.20;;;;;;5055940;28;20318;-69
2023/01/07 02:26:21;;;;;;;;;;;24.90;98.70;;;;;;5055648;28;20426;-69
2023/01/07 02:29:06;;;;;;;;;;;25.10;99.10;;;;;;5055115;28;20304;-69
2023/01/07 02:31:47;;;;;;;;;;;25.30;98.60;;;;;;5054465;28;19917;-69
2023/01/07 02:34:14;;;;;;;;;;;25.50;97.90;;;;;;5069658;28;20270;-68
2023/01/07 02:36:55;;;;;;;;;;;25.50;97.80;;;;;;5073843;28;19927;-69
2023/01/07 02:39:30;;;;;;;;;;;25.60;98.10;;;;;;5058855;28;20011;-69
2023/01/07 02:42:06;;;;;;;;;;;25.80;96.70;;;;;;5054236;28;19909;-70
2023/01/07 02:44:49;;;;;;;;;;;25.90;96.00;;;;;;5053735;28;19909;-69
2023/01/07 02:47:19;;;;;;;;;;;25.80;96.00;;;;;;5053863;28;19979;-69
2023/01/07 02:49:46;;;;;;;;;;;25.90;96.30;;;;;;5054204;28;19908;-76
2023/01/07 02:52:19;;;;;;;;;;;26.20;95.60;;;;;;5053826;28;19923;-71
2023/01/07 02:54:49;;;;;;;;;;;26.40;94.50;;;;;;5053922;28;19952;-77
2023/01/07 02:57:22;;;;;;;;;;;26.40;94.10;;;;;;5053642;28;19909;-75
2023/01/07 02:59:55;;;;;;;;;;;26.30;94.00;;;;;;5053638;28;20386;-72
2023/01/07 03:02:58;;;;;;;;;;;26.30;94.00;;;;;;5053637;28;20282;-77
2023/01/07 03:05:30;;;;;;;;;;;26.20;93.80;;;;;;5051137;28;19912;-75
2023/01/07 03:07:57;;;;;;;;;;;26.10;94.40;;;;;;5052726;28;20277;-69
2023/01/07 03:10:31;;;;;;;;;;;26.00;93.60;;;;;;5060990;28;19921;-76
2023/01/07 03:13:01;;;;;;;;;;;26.00;93.80;;;;;;5072906;28;20046;-74
2023/01/07 03:15:39;;;;;;;;;;;25.80;94.20;;;;;;5072744;28;20392;-69
2023/01/07 03:18:26;;;;;;;;;;;25.50;94.00;;;;;;5072974;28;19916;-71
2023/01/07 03:20:56;;;;;;;;;;;25.50;94.30;;;;;;5072180;28;19952;-71
2023/01/07 03:23:24;;;;;;;;;;;25.70;94.50;;;;;;5072987;28;19978;-78
2023/01/07 03:25:51;;;;;;;;;;;25.80;93.90;;;;;;5062059;28;19923;-77
2023/01/07 03:28:19;;;;;;;;;;;25.90;93.70;;;;;;5065443;28;20312;-75
2023/01/07 03:30:47;;;;;;;;;;;26.30;93.70;;;;;;5055862;28;19916;-73
2023/01/07 03:33:16;;;;;;;;;;;27.00;93.20;;;;;;5061899;28;19913;-71
2023/01/07 03:35:44;;;;;;;;;;;27.60;91.10;;;;;;5059402;28;20361;-72
2023/01/07 03:38:12;;;;;;;;;;;28.40;90.00;;;;;;5054648;28;20020;-71
2023/01/07 03:40:38;;;;;;;;;;;28.90;87.90;;;;;;5051322;28;19916;-71
2023/01/07 03:43:11;;;;;;;;;;;29.30;87.50;;;;;;5053769;28;20266;-72
2023/01/07 03:45:37;;;;;;;;;;;30.20;83.80;;;;;;5052229;28;19913;-72
2023/01/07 03:48:04;;;;;;;;;;;31.30;85.10;;;;;;5063298;28;19935;-72
2023/01/07 03:50:31;;;;;;;;;;;32.10;77.30;;;;;;5055023;28;19966;-72
2023/01/07 03:52:57;;;;;;;;;;;32.70;75.40;;;;;;5072498;28;19916;-72
2023/01/07 03:55:24;;;;;;;;;;;32.40;74.30;;;;;;5067285;28;20288;-72
2023/01/07 03:57:50;;;;;;;;;;;31.40;75.50;;;;;;5056520;28;19916;-72
2023/01/07 04:00:17;;;;;;;;;;;30.70;76.50;;;;;;5060220;28;19913;-72
2023/01/07 04:02:44;;;;;;;;;;;29.90;78.00;;;;;;5062181;28;19914;-72
2023/01/07 04:05:10;;;;;;;;;;;29.80;79.20;;;;;;5070278;28;19916;-70
2023/01/07 04:07:37;;;;;;;;;;;30.00;80.30;;;;;;5066868;28;19913;-71
2023/01/07 04:10:05;;;;;;;;;;;30.20;80.40;;;;;;5061339;28;19963;-70
2023/01/07 04:12:31;;;;;;;;;;;30.00;80.40;;;;;;5052365;28;19924;-72
2023/01/07 04:14:58;;;;;;;;;;;30.00;81.80;;;;;;5072459;28;19908;-72
2023/01/07 04:17:25;;;;;;;;;;;30.50;80.00;;;;;;5063491;28;20335;-70
2023/01/07 04:19:51;;;;;;;;;;;30.90;79.20;;;;;;5060268;28;19913;-72
2023/01/07 04:22:18;;;;;;;;;;;31.50;79.00;;;;;;5051489;28;19913;-72
2023/01/07 04:24:45;;;;;;;;;;;32.00;78.40;;;;;;5054521;28;19921;-72
2023/01/07 04:27:11;;;;;;;;;;;33.00;76.10;;;;;;5058722;28;19920;-71
2023/01/07 04:29:38;;;;;;;;;;;32.90;75.60;;;;;;5062085;28;19920;-70
2023/01/07 04:32:05;;;;;;;;;;;32.20;77.20;;;;;;5052363;28;19929;-70
2023/01/07 04:34:31;;;;;;;;;;;32.00;75.80;;;;;;5065721;28;19969;-72
2023/01/07 04:36:58;;;;;;;;;;;32.10;75.60;;;;;;5055685;28;19928;-71
2023/01/07 04:39:25;;;;;;;;;;;32.10;75.60;;;;;;5089720;28;19925;-72
2023/01/07 04:41:51;;;;;;;;;;;31.90;74.90;;;;;;5067480;28;20262;-71
2023/01/07 04:44:18;;;;;;;;;;;31.70;75.40;;;;;;5070912;28;20422;-71
2023/01/07 04:46:44;;;;;;;;;;;31.00;76.00;;;;;;5059863;28;20365;-70
2023/01/07 04:49:11;;;;;;;;;;;30.60;78.00;;;;;;5063972;28;20358;-70
2023/01/07 04:51:38;;;;;;;;;;;30.40;79.60;;;;;;5071049;28;19925;-69
2023/01/07 04:54:04;;;;;;;;;;;30.70;81.30;;;;;;5059850;28;19951;-70
2023/01/07 04:56:31;;;;;;;;;;;31.20;80.90;;;;;;5082704;28;19957;-71
2023/01/07 04:58:58;;;;;;;;;;;30.90;80.90;;;;;;5073046;28;20348;-71
2023/01/07 05:01:24;;;;;;;;;;;30.20;82.00;;;;;;5063082;28;20369;-71
2023/01/07 05:03:51;;;;;;;;;;;29.80;82.70;;;;;;5068785;28;20280;-71
2023/01/07 05:06:18;;;;;;;;;;;29.30;84.10;;;;;;5087457;28;19995;-71
2023/01/07 05:08:44;;;;;;;;;;;29.10;84.80;;;;;;5059635;28;19917;-70
2023/01/07 05:11:11;;;;;;;;;;;28.80;83.90;;;;;;5067161;28;19920;-71
2023/01/07 05:13:38;;;;;;;;;;;28.60;84.10;;;;;;5059530;28;19947;-70
2023/01/07 05:16:04;;;;;;;;;;;28.60;83.40;;;;;;5078912;28;19948;-70
2023/01/07 05:18:31;;;;;;;;;;;29.00;82.70;;;;;;5077086;28;19908;-71
2023/01/07 05:20:58;;;;;;;;;;;28.90;82.70;;;;;;5081925;28;19909;-70
2023/01/07 05:23:24;;;;;;;;;;;29.00;83.20;;;;;;5086946;28;19919;-71
2023/01/07 05:25:51;;;;;;;;;;;28.70;84.20;;;;;;5063260;28;19934;-69
2023/01/07 05:28:17;;;;;;;;;;;28.60;85.90;;;;;;5087050;28;20315;-70
2023/01/07 05:30:45;;;;;;;;;;;27.80;90.10;;;;;;5061275;28;19924;-70
2023/01/07 05:33:12;;;;;;;;;;;27.00;90.80;;;;;;5062159;28;19913;-71
2023/01/07 05:35:39;;;;;;;;;;;26.60;91.80;;;;;;5060446;28;20369;-72
2023/01/07 05:38:05;;;;;;;;;;;26.10;92.80;;;;;;5091937;28;19938;-71
2023/01/07 05:40:32;;;;;;;;;;;25.70;93.20;;;;;;5062343;28;19919;-69
2023/01/07 05:42:59;;;;;;;;;;;25.50;93.70;;;;;;5063574;28;19934;-68
2023/01/07 05:45:25;;;;;;;;;;;25.30;94.00;;;;;;5061868;28;20310;-69
2023/01/07 05:47:52;;;;;;;;;;;24.80;94.70;;;;;;5073028;28;20261;-70
2023/01/07 05:50:19;;;;;;;;;;;24.60;95.60;;;;;;5061637;28;19976;-69
2023/01/07 05:52:45;;;;;;;;;;;24.50;95.90;;;;;;5055353;28;19921;-70
2023/01/07 05:55:12;;;;;;;;;;;24.40;96.30;;;;;;5068506;28;19935;-70
2023/01/07 05:57:39;;;;;;;;;;;24.40;96.50;;;;;;5085100;28;19917;-70
2023/01/07 06:00:06;;;;;;;;;;;24.30;96.50;;;;;;5079005;28;19912;-69
2023/01/07 06:02:32;;;;;;;;;;;24.20;97.00;;;;;;5078228;28;19916;-71
2023/01/07 06:04:59;;;;;;;;;;;24.20;97.10;;;;;;5064646;28;19970;-71
2023/01/07 06:07:26;;;;;;;;;;;24.20;96.80;;;;;;5074909;28;20353;-71
2023/01/07 06:09:52;;;;;;;;;;;24.20;96.20;;;;;;5077803;28;19915;-68
2023/01/07 06:12:19;;;;;;;;;;;24.30;96.00;;;;;;5064678;28;19925;-70
2023/01/07 06:14:45;;;;;;;;;;;24.20;95.80;;;;;;5070375;28;19948;-71
2023/01/07 06:17:12;;;;;;;;;;;24.10;96.20;;;;;;5058265;28;20399;-70
2023/01/07 06:19:39;;;;;;;;;;;24.00;96.10;;;;;;5072137;28;20020;-70
2023/01/07 06:22:05;;;;;;;;;;;23.90;96.80;;;;;;5062821;28;19912;-70
2023/01/07 06:24:32;;;;;;;;;;;23.80;96.70;;;;;;5055692;28;20269;-69
2023/01/07 06:26:59;;;;;;;;;;;23.60;97.40;;;;;;5056463;28;19912;-71
2023/01/07 06:29:25;;;;;;;;;;;23.50;98.10;;;;;;5090028;28;19908;-70
2023/01/07 06:31:52;;;;;;;;;;;23.30;99.10;;;;;;5063050;28;19982;-70
2023/01/07 06:34:19;;;;;;;;;;;23.10;98.90;;;;;;5055739;28;19974;-69
2023/01/07 06:36:45;;;;;;;;;;;23.00;98.70;;;;;;5058110;28;19931;-70
2023/01/07 06:39:12;;;;;;;;;;;22.90;98.50;;;;;;5053326;28;20358;-71
2023/01/07 06:41:38;;;;;;;;;;;22.80;98.90;;;;;;5052547;28;19935;-70
2023/01/07 06:44:05;;;;;;;;;;;22.80;99.40;;;;;;5052763;28;20003;-70
2023/01/07 06:46:32;;;;;;;;;;;22.70;99.90;;;;;;5052964;28;19913;-71
2023/01/07 06:48:59;;;;;;;;;;;22.60;99.90;;;;;;5065272;28;20007;-70
2023/01/07 06:51:25;;;;;;;;;;;22.50;99.90;;;;;;5062480;28;20011;-70
2023/01/07 06:53:52;;;;;;;;;;;22.40;99.90;;;;;;5053193;28;20381;-69
2023/01/07 06:56:18;;;;;;;;;;;22.30;99.90;;;;;;5053879;28;19985;-70
2023/01/07 06:58:45;;;;;;;;;;;22.20;99.90;;;;;;5065042;28;19921;-70
2023/01/07 07:01:12;;;;;;;;;;;22.00;99.90;;;;;;5069396;28;19913;-69
2023/01/07 07:03:38;;;;;;;;;;;21.90;99.90;;;;;;5084338;28;19912;-70
2023/01/07 07:06:05;;;;;;;;;;;21.80;99.90;;;;;;5086666;28;19908;-69
2023/01/07 07:08:32;;;;;;;;;;;21.80;99.90;;;;;;5062838;28;19917;-69
2023/01/07 07:10:58;;;;;;;;;;;21.60;99.90;;;;;;5080868;28;19926;-70
2023/01/07 07:13:25;;;;;;;;;;;21.40;99.90;;;;;;5068906;28;19916;-70
2023/01/07 07:15:52;;;;;;;;;;;21.20;99.90;;;;;;5058404;28;19924;-71
2023/01/07 07:18:18;;;;;;;;;;;21.10;99.90;;;;;;5058137;28;19965;-70
2023/01/07 07:20:46;;;;;;;;;;;20.90;99.90;;;;;;5055323;28;20388;-71
2023/01/07 07:23:13;;;;;;;;;;;20.90;99.90;;;;;;5083131;28;20393;-71
2023/01/07 07:25:39;;;;;;;;;;;20.80;99.90;;;;;;5061750;28;19909;-70
2023/01/07 07:28:06;;;;;;;;;;;20.80;99.90;;;;;;5072121;28;19920;-69
2023/01/07 07:30:33;;;;;;;;;;;20.80;99.90;;;;;;5052501;28;19999;-71
2023/01/07 07:33:03;;;;;;;;;;;20.80;99.90;;;;;;5067120;28;19957;-71
2023/01/07 07:35:30;;;;;;;;;;;20.90;99.90;;;;;;5066184;28;19913;-70
2023/01/07 07:37:57;;;;;;;;;;;20.90;99.90;;;;;;5062035;28;19920;-70
2023/01/07 07:40:24;;;;;;;;;;;20.80;99.90;;;;;;5081877;28;19908;-71
2023/01/07 07:42:50;;;;;;;;;;;20.80;99.90;;;;;;5061488;28;19916;-72
2023/01/07 07:45:18;;;;;;;;;;;20.90;99.90;;;;;;5054940;28;20379;-69
2023/01/07 07:47:45;;;;;;;;;;;20.90;99.90;;;;;;5062142;28;19967;-69
2023/01/07 07:50:12;;;;;;;;;;;20.80;99.90;;;;;;5084542;28;19930;-70
2023/01/07 07:52:39;;;;;;;;;;;20.80;99.90;;;;;;5082016;28;19912;-71
2023/01/07 07:55:06;;;;;;;;;;;20.70;99.90;;;;;;5080951;28;20348;-69
2023/01/07 07:57:32;;;;;;;;;;;20.70;99.90;;;;;;5069446;28;19931;-70
2023/01/07 07:59:59;;;;;;;;;;;20.70;99.90;;;;;;5068218;28;20637;-70
2023/01/07 08:02:26;;;;;;;;;;;20.70;99.90;;;;;;5077149;28;20003;-71
2023/01/07 08:04:52;;;;;;;;;;;20.70;99.90;;;;;;5059515;28;20290;-69
2023/01/07 08:07:19;;;;;;;;;;;20.70;99.90;;;;;;5051638;28;20281;-71
2023/01/07 08:09:45;;;;;;;;;;;20.70;99.90;;;;;;5054679;28;19917;-72
2023/01/07 08:12:12;;;;;;;;;;;20.70;99.90;;;;;;5071927;28;20406;-71
2023/01/07 08:14:39;;;;;;;;;;;20.60;99.90;;;;;;5079399;28;19945;-70
2023/01/07 08:17:05;;;;;;;;;;;20.60;99.90;;;;;;5085972;28;19920;-71
2023/01/07 08:19:32;;;;;;;;;;;20.70;99.90;;;;;;5080175;28;19911;-71
2023/01/07 08:21:59;;;;;;;;;;;20.60;99.90;;;;;;5083566;28;19956;-72
2023/01/07 08:24:25;;;;;;;;;;;20.60;99.90;;;;;;5083288;28;19922;-71
2023/01/07 08:26:54;;;;;;;;;;;20.60;99.90;;;;;;5077603;28;19954;-72
2023/01/07 08:29:21;;;;;;;;;;;20.40;99.90;;;;;;5063880;28;19920;-71
2023/01/07 08:31:48;;;;;;;;;;;20.50;99.90;;;;;;5084918;28;20412;-72
2023/01/07 08:34:15;;;;;;;;;;;20.40;99.90;;;;;;5063173;28;19966;-70
2023/01/07 08:36:42;;;;;;;;;;;20.40;99.90;;;;;;5078556;28;19928;-71
2023/01/07 08:39:08;;;;;;;;;;;20.30;99.90;;;;;;5075247;28;19908;-72
2023/01/07 08:41:35;;;;;;;;;;;20.30;99.90;;;;;;5075529;28;20343;-72
2023/01/07 08:44:02;;;;;;;;;;;20.20;99.90;;;;;;5075775;28;19947;-72
2023/01/07 08:46:28;;;;;;;;;;;20.10;99.90;;;;;;5083435;28;19999;-72
2023/01/07 08:48:55;;;;;;;;;;;20.00;99.90;;;;;;5082234;28;19920;-72
2023/01/07 08:51:22;;;;;;;;;;;20.00;99.90;;;;;;5081140;28;20421;-72
2023/01/07 08:53:48;;;;;;;;;;;19.90;99.90;;;;;;5081004;28;20383;-72
2023/01/07 08:56:15;;;;;;;;;;;19.70;99.90;;;;;;5079146;28;19913;-71
2023/01/07 08:58:42;;;;;;;;;;;19.60;99.90;;;;;;5077440;28;20026;-71
2023/01/07 09:01:09;;;;;;;;;;;19.60;99.90;;;;;;5072836;28;20547;-71
2023/01/07 09:03:36;;;;;;;;;;;19.60;99.90;;;;;;5075816;28;19912;-71
2023/01/07 09:06:02;;;;;;;;;;;19.60;99.90;;;;;;5076123;28;19920;-71
2023/01/07 09:08:29;;;;;;;;;;;19.60;99.90;;;;;;5085538;28;19921;-69
2023/01/07 09:10:56;;;;;;;;;;;19.60;99.90;;;;;;5079565;28;19916;-72
2023/01/07 09:13:22;;;;;;;;;;;19.50;99.90;;;;;;5085643;28;19957;-72
2023/01/07 09:15:49;;;;;;;;;;;19.50;99.90;;;;;;5084956;28;19951;-71
2023/01/07 09:18:16;;;;;;;;;;;19.60;99.90;;;;;;5084801;28;19909;-71
2023/01/07 09:20:42;;;;;;;;;;;19.50;99.90;;;;;;5094365;28;19930;-69
2023/01/07 09:23:09;;;;;;;;;;;19.50;99.90;;;;;;5095935;28;19998;-69
2023/01/07 09:25:35;;;;;;;;;;;19.50;99.90;;;;;;5095235;28;19962;-72
2023/01/07 09:28:02;;;;;;;;;;;19.50;99.90;;;;;;5071763;28;20456;-72
2023/01/07 09:30:29;;;;;;;;;;;19.60;99.90;;;;;;5058136;28;19943;-69
2023/01/07 09:32:55;;;;;;;;;;;19.60;99.90;;;;;;5072057;28;20289;-69
2023/01/07 09:35:22;;;;;;;;;;;19.60;99.90;;;;;;5074879;28;19947;-71
2023/01/07 09:37:49;;;;;;;;;;;19.60;99.90;;;;;;5069286;28;19931;-69
2023/01/07 09:40:24;;;;;;;;;;;19.60;99.90;;;;;;5077313;28;20392;-71
2023/01/07 09:42:51;;;;;;;;;;;19.50;99.90;;;;;;5079624;28;19955;-73
2023/01/07 09:45:17;;;;;;;;;;;19.50;99.90;;;;;;5061860;28;19956;-70
2023/01/07 09:47:46;;;;;;;;;;;19.50;99.90;;;;;;5080229;28;19914;-71
2023/01/07 09:50:19;;;;;;;;;;;19.50;99.90;;;;;;5084496;28;19939;-70
2023/01/07 09:52:49;;;;;;;;;;;19.50;99.90;;;;;;5074780;28;19920;-69
2023/01/07 09:55:18;;;;;;;;;;;19.50;99.90;;;;;;5089035;28;19999;-72
2023/01/07 09:57:45;;;;;;;;;;;19.60;99.90;;;;;;5088522;28;20490;-69
2023/01/07 10:00:19;;;;;;;;;;;19.60;99.90;;;;;;5074370;28;19912;-70
2023/01/07 10:02:54;;;;;;;;;;;19.70;99.90;;;;;;5078553;28;19999;-70
2023/01/07 10:05:21;;;;;;;;;;;19.60;99.90;;;;;;5084126;28;19908;-70
2023/01/07 10:08:09;;;;;;;;;;;19.60;99.90;;;;;;5080182;28;19943;-69
2023/01/07 10:11:01;;;;;;;;;;;19.60;99.90;;;;;;5073341;28;19970;-72
2023/01/07 10:13:44;;;;;;;;;;;19.70;99.90;;;;;;5097095;28;19916;-69
2023/01/07 10:16:17;;;;;;;;;;;19.60;99.90;;;;;;5079612;28;20420;-72
2023/01/07 10:18:43;;;;;;;;;;;19.60;99.90;;;;;;5073524;28;19956;-70
2023/01/07 10:21:10;;;;;;;;;;;19.70;99.90;;;;;;5087626;28;20266;-69
2023/01/07 10:23:41;;;;;;;;;;;19.70;99.90;;;;;;5072754;28;19966;-70
2023/01/07 10:26:30;;;;;;;;;;;19.70;99.90;;;;;;5072982;28;19923;-70
2023/01/07 10:29:04;;;;;;;;;;;19.70;99.90;;;;;;5054272;28;20286;-70
2023/01/07 10:31:31;;;;;;;;;;;19.60;99.90;;;;;;5053089;28;19927;-70
2023/01/07 10:33:58;;;;;;;;;;;19.50;99.90;;;;;;5054056;28;19915;-70
2023/01/07 10:36:28;;;;;;;;;;;19.50;99.90;;;;;;5075407;28;19931;-69
2023/01/07 10:39:13;;;;;;;;;;;19.50;99.90;;;;;;5064195;28;20399;-70
2023/01/07 10:41:55;;;;;;;;;;;19.50;99.90;;;;;;5064392;28;20410;-70
2023/01/07 10:44:25;;;;;;;;;;;19.50;99.90;;;;;;5083855;28;19965;-71
2023/01/07 10:46:54;;;;;;;;;;;19.50;99.90;;;;;;5059103;28;19959;-71
2023/01/07 10:49:30;;;;;;;;;;;19.50;99.90;;;;;;5085001;28;19915;-72
2023/01/07 10:51:57;;;;;;;;;;;19.50;99.90;;;;;;5075079;28;19928;-72
2023/01/07 10:54:42;;;;;;;;;;;19.50;99.90;;;;;;5071784;28;19965;-71
2023/01/07 10:57:17;;;;;;;;;;;19.40;99.90;;;;;;5082571;28;19912;-72
2023/01/07 10:59:49;;;;;;;;;;;19.50;99.90;;;;;;5071767;28;19920;-73
2023/01/07 11:02:17;;;;;;;;;;;19.40;99.90;;;;;;5071874;28;20421;-72
2023/01/07 11:04:44;;;;;;;;;;;19.40;99.90;;;;;;5073138;28;19992;-73
2023/01/07 11:07:16;;;;;;;;;;;19.30;99.90;;;;;;5072854;28;19974;-72
2023/01/07 11:09:45;;;;;;;;;;;19.40;99.90;;;;;;5072354;28;19914;-69
2023/01/07 11:12:11;;;;;;;;;;;19.50;99.90;;;;;;5072681;28;19916;-71
2023/01/07 11:14:40;;;;;;;;;;;19.40;99.90;;;;;;5073409;28;19909;-71
2023/01/07 11:17:15;;;;;;;;;;;19.40;99.90;;;;;;5065064;28;19923;-71
2023/01/07 11:19:47;;;;;;;;;;;19.40;99.90;;;;;;5078464;28;19909;-70
2023/01/07 11:22:26;;;;;;;;;;;19.40;99.90;;;;;;5073010;28;20357;-70
2023/01/07 11:24:57;;;;;;;;;;;19.40;99.90;;;;;;5053813;28;19909;-71
2023/01/07 11:27:24;;;;;;;;;;;19.40;99.90;;;;;;5064858;28;19924;-70
2023/01/07 11:30:00;;;;;;;;;;;19.30;99.90;;;;;;5058392;28;19951;-73
2023/01/07 11:32:29;;;;;;;;;;;19.30;99.90;;;;;;5052105;28;19921;-73
2023/01/07 11:34:59;;;;;;;;;;;19.20;99.90;;;;;;5051362;28;19921;-69
2023/01/07 11:37:32;;;;;;;;;;;19.20;99.90;;;;;;5063318;28;19921;-70
2023/01/07 11:40:00;;;;;;;;;;;19.20;99.90;;;;;;5058918;28;20397;-70
2023/01/07 11:42:38;;;;;;;;;;;19.20;99.90;;;;;;5050424;28;19987;-70
2023/01/07 11:45:11;;;;;;;;;;;19.10;99.90;;;;;;5062167;28;19924;-71
2023/01/07 11:47:39;;;;;;;;;;;19.10;99.90;;;;;;5072738;28;20401;-71
2023/01/07 11:50:08;;;;;;;;;;;19.10;99.90;;;;;;5072774;28;19912;-72
2023/01/07 11:52:35;;;;;;;;;;;19.00;99.90;;;;;;5072419;28;19924;-72
2023/01/07 11:55:01;;;;;;;;;;;19.00;99.90;;;;;;5072733;28;19934;-72
2023/01/07 11:57:28;;;;;;;;;;;19.00;99.90;;;;;;5072589;28;19916;-71
2023/01/07 12:00:16;;;;;;;;;;;19.00;99.90;;;;;;5072819;28;19948;-71
2023/01/07 12:02:43;;;;;;;;;;;19.00;99.90;;;;;;5071786;28;20289;-71
2023/01/07 12:05:23;;;;;;;;;;;19.00;99.90;;;;;;5070977;28;20007;-71
2023/01/07 12:07:50;;;;;;;;;;;19.00;99.90;;;;;;5052881;28;19913;-72
2023/01/07 12:10:35;;;;;;;;;;;19.10;99.90;;;;;;5052209;28;19909;-71
2023/01/07 12:13:04;;;;;;;;;;;19.10;99.90;;;;;;5052616;28;20322;-72
2023/01/07 12:15:32;;;;;;;;;;;19.10;99.90;;;;;;5052422;28;19916;-73
2023/01/07 12:18:01;;;;;;;;;;;19.10;99.90;;;;;;5052288;28;19908;-72
2023/01/07 12:20:47;;;;;;;;;;;19.10;99.90;;;;;;5050795;28;19983;-72
2023/01/07 12:23:32;;;;;;;;;;;19.10;99.90;;;;;;5055363;28;19919;-71
2023/01/07 12:26:10;;;;;;;;;;;19.10;99.90;;;;;;5052475;28;19908;-70
2023/01/07 12:28:49;;;;;;;;;;;19.10;99.90;;;;;;5052287;28;19909;-71
2023/01/07 12:31:34;;;;;;;;;;;19.10;99.90;;;;;;5052347;28;19984;-71
2023/01/07 12:34:01;;;;;;;;;;;19.10;99.90;;;;;;5052668;28;20366;-71
2023/01/07 12:36:45;;;;;;;;;;;19.20;99.90;;;;;;5052019;28;19960;-71
2023/01/07 12:39:20;;;;;;;;;;;19.10;99.90;;;;;;5052171;28;20281;-71
2023/01/07 12:41:50;;;;;;;;;;;19.20;99.90;;;;;;5052240;28;19963;-71
2023/01/07 12:44:19;;;;;;;;;;;19.30;99.90;;;;;;5052336;28;19952;-71
2023/01/07 12:47:04;;;;;;;;;;;19.30;99.90;;;;;;5052002;28;19908;-71
2023/01/07 12:49:34;;;;;;;;;;;19.30;99.90;;;;;;5052066;28;19909;-71
2023/01/07 12:52:04;;;;;;;;;;;19.30;99.90;;;;;;5052213;28;20378;-71
2023/01/07 12:54:40;;;;;;;;;;;19.40;99.90;;;;;;5051816;28;19916;-72
2023/01/07 12:57:18;;;;;;;;;;;19.40;99.90;;;;;;5055335;28;19909;-72
2023/01/07 12:59:53;;;;;;;;;;;19.40;99.90;;;;;;5056326;28;20359;-71
2023/01/07 13:02:25;;;;;;;;;;;19.40;99.90;;;;;;5055880;28;19909;-71
2023/01/07 13:04:55;;;;;;;;;;;19.40;99.90;;;;;;5055793;28;19912;-71
2023/01/07 13:07:28;;;;;;;;;;;19.40;99.90;;;;;;5055676;28;19951;-71
2023/01/07 13:09:59;;;;;;;;;;;19.40;99.90;;;;;;5055814;28;20004;-71
2023/01/07 13:12:47;;;;;;;;;;;19.50;99.90;;;;;;5055384;28;19918;-71
2023/01/07 13:15:27;;;;;;;;;;;19.40;99.90;;;;;;5055740;28;19909;-70
2023/01/07 13:17:55;;;;;;;;;;;19.40;99.90;;;;;;5055490;28;20392;-71
2023/01/07 13:20:32;;;;;;;;;;;19.40;99.90;;;;;;5055662;28;19916;-72
2023/01/07 13:23:00;;;;;;;;;;;19.40;99.90;;;;;;5055447;28;19909;-71
2023/01/07 13:25:58;;;;;;;;;;;19.40;99.90;;;;;;5055322;28;19909;-71
2023/01/07 13:28:35;;;;;;;;;;;19.30;99.90;;;;;;5054049;28;19913;-71
2023/01/07 13:31:32;;;;;;;;;;;19.20;99.90;;;;;;5055425;28;20388;-71
2023/01/07 13:33:59;;;;;;;;;;;19.20;99.90;;;;;;5036269;28;19909;-71
2023/01/07 13:36:32;;;;;;;;;;;19.00;99.90;;;;;;5055091;28;19929;-71
2023/01/07 13:39:17;;;;;;;;;;;19.00;99.90;;;;;;5053918;28;20285;-70
2023/01/07 13:41:49;;;;;;;;;;;18.90;99.90;;;;;;5055066;28;19931;-72
2023/01/07 13:44:37;;;;;;;;;;;18.90;99.90;;;;;;5054838;28;20485;-71
2023/01/07 13:47:04;;;;;;;;;;;18.90;99.90;;;;;;5064841;28;19913;-70
2023/01/07 13:49:32;;;;;;;;;;;18.90;99.90;;;;;;5074971;28;19908;-70
2023/01/07 13:52:19;;;;;;;;;;;18.90;99.90;;;;;;5074903;28;20011;-70
2023/01/07 13:54:51;;;;;;;;;;;18.80;99.90;;;;;;5074278;28;19924;-70
2023/01/07 13:57:24;;;;;;;;;;;18.80;99.90;;;;;;5074588;28;20270;-69
2023/01/07 13:59:52;;;;;;;;;;;18.80;99.90;;;;;;5074851;28;20428;-70
2023/01/07 14:02:20;;;;;;;;;;;18.80;99.90;;;;;;5074788;28;19944;-70
2023/01/07 14:04:48;;;;;;;;;;;18.70;99.90;;;;;;5074692;28;19913;-69
2023/01/07 14:07:15;;;;;;;;;;;18.70;99.90;;;;;;5074000;28;19982;-69
2023/01/07 14:09:41;;;;;;;;;;;18.70;99.90;;;;;;5074787;28;19962;-70
2023/01/07 14:12:08;;;;;;;;;;;18.70;99.90;;;;;;5074823;28;19917;-70
2023/01/07 14:14:37;;;;;;;;;;;18.70;99.90;;;;;;5074859;28;19987;-70
2023/01/07 14:17:25;;;;;;;;;;;18.70;99.90;;;;;;5074260;28;19909;-71
2023/01/07 14:20:04;;;;;;;;;;;18.60;99.90;;;;;;5074455;28;19908;-69
2023/01/07 14:22:36;;;;;;;;;;;18.70;99.90;;;;;;5074503;28;20270;-69
2023/01/07 14:25:03;;;;;;;;;;;18.70;99.90;;;;;;5074376;28;19909;-69
2023/01/07 14:27:30;;;;;;;;;;;18.70;99.90;;;;;;5073763;28;19912;-69
2023/01/07 14:29:58;;;;;;;;;;;18.70;99.90;;;;;;5074151;28;19909;-71
2023/01/07 14:32:25;;;;;;;;;;;18.70;99.90;;;;;;5072754;28;19986;-69
2023/01/07 14:34:53;;;;;;;;;;;18.70;99.90;;;;;;5074172;28;20342;-69